aviador You're here:

CYWE Decoded Metar

in
Report Time2017-11-25 03:00:00
UTC Time2017-11-25 03:47:51
Flight Rules vfr VFR
Wind090° at 02 kt
W.Decomp.*RWY 13: 1.5 kt HW 1.3 kt LCW
W.Rank090° ranks 6
Current wind is below 090° avg. (7.1)
Visibility9999 m
Phenomena:N/A
Clouds:Few 100 Hf
Expected CloudBase > 800 ft AGL from Temp-Dew spread
CeilingNone
Temp-26°C
Dew Point-28°C (83% RH)
AAT-30.5°C
QNH1006 hPa
Raw Report
METAR CYWE 250300Z AUTO 09002KT 9SM FEW100 M26/M28 A2972 RMK SLP117=

Extra information for CYWE:More info

Social comments